createdAt,value
2016-06-08T00:00:15.261Z,1018.56
2016-06-08T00:01:15.296Z,1018.6
2016-06-08T00:02:15.330Z,1018.56
2016-06-08T00:03:15.363Z,1018.56
2016-06-08T00:04:15.366Z,1018.56
2016-06-08T00:05:15.400Z,1018.55
2016-06-08T00:06:15.419Z,1018.51
2016-06-08T00:07:15.452Z,1018.55
2016-06-08T00:08:15.471Z,1018.54
2016-06-08T00:09:15.505Z,1018.49
2016-06-08T00:10:15.522Z,1018.54
2016-06-08T00:11:15.557Z,1018.57
2016-06-08T00:12:15.574Z,1018.54
2016-06-08T00:13:15.609Z,1018.5
2016-06-08T00:14:15.627Z,1018.59
2016-06-08T00:15:15.661Z,1018.54
2016-06-08T00:16:15.680Z,1018.55
2016-06-08T00:17:15.713Z,1018.56
2016-06-08T00:18:15.732Z,1018.5
2016-06-08T00:19:15.765Z,1018.53
2016-06-08T00:20:15.784Z,1018.47
2016-06-08T00:21:15.818Z,1018.48
2016-06-08T00:22:15.868Z,1018.45
2016-06-08T00:23:15.870Z,1018.46
2016-06-08T00:24:15.888Z,1018.48
2016-06-08T00:25:15.923Z,1018.46
2016-06-08T00:26:15.956Z,1018.44
2016-06-08T00:27:16.272Z,1018.41
2016-06-08T00:28:15.992Z,1018.39
2016-06-08T00:29:16.027Z,1018.35
2016-06-08T00:30:16.045Z,1018.39
2016-06-08T00:31:16.079Z,1018.38
2016-06-08T00:32:16.098Z,1018.36
2016-06-08T00:33:16.131Z,1018.36
2016-06-08T00:34:16.166Z,1018.33
2016-06-08T00:35:16.183Z,1018.34
2016-06-08T00:36:16.217Z,1018.32
2016-06-08T00:37:16.236Z,1018.3
2016-06-08T00:38:16.269Z,1018.3
2016-06-08T00:39:16.289Z,1018.32
2016-06-08T00:40:16.322Z,1018.31
2016-06-08T00:41:16.419Z,1018.3
2016-06-08T00:42:16.375Z,1018.27
2016-06-08T00:43:16.393Z,1018.27
2016-06-08T00:44:16.427Z,1018.25
2016-06-08T00:45:16.445Z,1018.27
2016-06-08T00:46:16.479Z,1018.28
2016-06-08T00:47:16.497Z,1018.24
2016-06-08T00:48:16.532Z,1018.3
2016-06-08T00:49:16.549Z,1018.23
2016-06-08T00:50:16.584Z,1018.24
2016-06-08T00:51:16.601Z,1018.21
2016-06-08T00:52:16.635Z,1018.2
2016-06-08T00:53:16.654Z,1018.26
2016-06-08T00:54:16.687Z,1018.23
2016-06-08T00:55:16.707Z,1018.22
2016-06-08T00:56:17.225Z,1018.24
2016-06-08T00:57:16.759Z,1018.25
2016-06-08T00:58:16.793Z,1018.21
2016-06-08T00:59:16.811Z,1018.22
2016-06-08T01:00:16.845Z,1018.18
2016-06-08T01:01:16.863Z,1018.17
2016-06-08T01:02:16.897Z,1018.16
2016-06-08T01:03:16.915Z,1018.17
2016-06-08T01:04:16.950Z,1018.13
2016-06-08T01:05:16.967Z,1018.13
2016-06-08T01:06:17.002Z,1018.16
2016-06-08T01:07:17.019Z,1018.14
2016-06-08T01:08:17.053Z,1018.14
2016-06-08T01:09:17.072Z,1018.15
2016-06-08T01:10:17.105Z,1018.15
2016-06-08T01:11:17.125Z,1018.12
2016-06-08T01:12:17.393Z,1018.12
2016-06-08T01:13:17.177Z,1018.11
2016-06-08T01:14:17.211Z,1018.12
2016-06-08T01:15:17.229Z,1018.12
2016-06-08T01:16:17.263Z,1018.12
2016-06-08T01:17:17.281Z,1018.14
2016-06-08T01:18:17.315Z,1018.14
2016-06-08T01:19:17.333Z,1018.11
2016-06-08T01:20:17.368Z,1018.14
2016-06-08T01:21:17.385Z,1018.13
2016-06-08T01:22:17.420Z,1018.11
2016-06-08T01:23:17.438Z,1018.09
2016-06-08T01:24:17.471Z,1018.11
2016-06-08T01:25:17.490Z,1018.08
2016-06-08T01:26:18.414Z,1018.08
2016-06-08T01:27:17.543Z,1018.1
2016-06-08T01:28:17.576Z,1018.11
2016-06-08T01:29:17.595Z,1018.1
2016-06-08T01:30:17.629Z,1018.1
2016-06-08T01:31:17.647Z,1018.11
2016-06-08T01:32:17.681Z,1018.08
2016-06-08T01:33:17.699Z,1018.07
2016-06-08T01:34:17.733Z,1018.06
2016-06-08T01:35:17.751Z,1018.06
2016-06-08T01:36:17.786Z,1018.07
2016-06-08T01:37:17.803Z,1018.05
2016-06-08T01:38:17.838Z,1018
2016-06-08T01:39:17.855Z,1018.04
2016-06-08T01:40:17.889Z,1018.03
2016-06-08T01:41:17.924Z,1018.03
2016-06-08T01:42:18.098Z,1017.99
2016-06-08T01:43:17.961Z,1018.03
2016-06-08T01:44:17.994Z,1018.04
2016-06-08T01:45:18.013Z,1017.98
2016-06-08T01:46:18.047Z,1018.03
2016-06-08T01:47:18.080Z,1018.03
2016-06-08T01:48:18.099Z,1018
2016-06-08T01:49:18.117Z,1017.96
2016-06-08T01:50:18.151Z,1018.01
2016-06-08T01:51:18.169Z,1017.99
2016-06-08T01:52:18.204Z,1018.01
2016-06-08T01:53:18.221Z,1018.01
2016-06-08T01:54:18.256Z,1018.02
2016-06-08T01:55:18.273Z,1018.04
2016-06-08T01:56:18.307Z,1018.05
2016-06-08T01:57:18.342Z,1018.04
2016-06-08T01:58:18.360Z,1018.02
2016-06-08T01:59:18.379Z,1018.04
2016-06-08T02:00:18.412Z,1018.04
2016-06-08T02:01:18.431Z,1018.08
2016-06-08T02:02:18.465Z,1018.04
2016-06-08T02:03:18.483Z,1018.06
2016-06-08T02:04:18.517Z,1018.05
2016-06-08T02:05:18.535Z,1018.09
2016-06-08T02:06:18.584Z,1018.08
2016-06-08T02:07:18.587Z,1018.07
2016-06-08T02:08:18.622Z,1018.11
2016-06-08T02:09:18.639Z,1018.1
2016-06-08T02:10:18.674Z,1018.12
2016-06-08T02:11:18.691Z,1018.1
2016-06-08T02:12:18.726Z,1018.11
2016-06-08T02:13:18.744Z,1018.11
2016-06-08T02:14:18.778Z,1018.15
2016-06-08T02:15:18.797Z,1018.14
2016-06-08T02:16:18.830Z,1018.12
2016-06-08T02:17:18.849Z,1018.16
2016-06-08T02:18:18.883Z,1018.2
2016-06-08T02:19:18.901Z,1018.18
2016-06-08T02:20:18.935Z,1018.17
2016-06-08T02:21:18.953Z,1018.15
2016-06-08T02:22:18.987Z,1018.17
2016-06-08T02:23:19.005Z,1018.18
2016-06-08T02:24:19.040Z,1018.21
2016-06-08T02:25:19.057Z,1018.24
2016-06-08T02:26:19.092Z,1018.23
2016-06-08T02:27:19.109Z,1018.28
2016-06-08T02:28:19.143Z,1018.26
2016-06-08T02:29:19.193Z,1018.25
2016-06-08T02:30:19.195Z,1018.27
2016-06-08T02:31:19.215Z,1018.31
2016-06-08T02:32:19.264Z,1018.28
2016-06-08T02:33:19.267Z,1018.28
2016-06-08T02:34:19.301Z,1018.28
2016-06-08T02:35:19.319Z,1018.32
2016-06-08T02:36:19.353Z,1018.35
2016-06-08T02:37:19.372Z,1018.34
2016-06-08T02:38:19.405Z,1018.32
2016-06-08T02:39:19.423Z,1018.36
2016-06-08T02:40:19.458Z,1018.38
2016-06-08T02:41:19.475Z,1018.4
2016-06-08T02:42:20.369Z,1018.42
2016-06-08T02:43:19.527Z,1018.42
2016-06-08T02:44:19.561Z,1018.47
2016-06-08T02:45:19.581Z,1018.44
2016-06-08T02:46:19.613Z,1018.46
2016-06-08T02:47:19.649Z,1018.48
2016-06-08T02:48:19.666Z,1018.46
2016-06-08T02:49:19.685Z,1018.47
2016-06-08T02:50:19.719Z,1018.47
2016-06-08T02:51:19.737Z,1018.48
2016-06-08T02:52:19.771Z,1018.46
2016-06-08T02:53:19.790Z,1018.44
2016-06-08T02:54:19.823Z,1018.48
2016-06-08T02:55:19.841Z,1018.5
2016-06-08T02:56:19.876Z,1018.49
2016-06-08T02:57:19.909Z,1018.5
2016-06-08T02:58:19.928Z,1018.5
2016-06-08T02:59:19.945Z,1018.46
2016-06-08T03:00:19.979Z,1018.49
2016-06-08T03:01:19.999Z,1018.48
2016-06-08T03:02:20.031Z,1018.51
2016-06-08T03:03:20.051Z,1018.49
2016-06-08T03:04:20.084Z,1018.45
2016-06-08T03:05:20.118Z,1018.41
2016-06-08T03:06:20.137Z,1018.4
2016-06-08T03:07:20.155Z,1018.43
2016-06-08T03:08:20.189Z,1018.41
2016-06-08T03:09:20.208Z,1018.39
2016-06-08T03:10:20.241Z,1018.38
2016-06-08T03:11:20.259Z,1018.34
2016-06-08T03:12:20.294Z,1018.37
2016-06-08T03:13:20.311Z,1018.36
2016-06-08T03:14:20.346Z,1018.4
2016-06-08T03:15:20.363Z,1018.41
2016-06-08T03:16:20.397Z,1018.41
2016-06-08T03:17:20.417Z,1018.36
2016-06-08T03:18:20.450Z,1018.41
2016-06-08T03:19:20.469Z,1018.38
2016-06-08T03:20:20.502Z,1018.36
2016-06-08T03:21:20.536Z,1018.36
2016-06-08T03:22:20.554Z,1018.39
2016-06-08T03:23:20.588Z,1018.37
2016-06-08T03:24:20.607Z,1018.36
2016-06-08T03:25:20.626Z,1018.38
2016-06-08T03:26:20.660Z,1018.37
2016-06-08T03:27:20.693Z,1018.39
2016-06-08T03:28:20.712Z,1018.39
2016-06-08T03:29:20.729Z,1018.39
2016-06-08T03:30:20.764Z,1018.38
2016-06-08T03:31:20.797Z,1018.35
2016-06-08T03:32:20.815Z,1018.4
2016-06-08T03:33:20.835Z,1018.37
2016-06-08T03:34:20.868Z,1018.37
2016-06-08T03:35:20.887Z,1018.39
2016-06-08T03:36:20.920Z,1018.39
2016-06-08T03:37:20.939Z,1018.37
2016-06-08T03:38:20.973Z,1018.41
2016-06-08T03:39:20.991Z,1018.41
2016-06-08T03:40:21.025Z,1018.42
2016-06-08T03:41:21.044Z,1018.39
2016-06-08T03:42:21.078Z,1018.4
2016-06-08T03:43:21.111Z,1018.43
2016-06-08T03:44:21.130Z,1018.39
2016-06-08T03:45:21.164Z,1018.41
2016-06-08T03:46:21.182Z,1018.4
2016-06-08T03:47:21.199Z,1018.39
2016-06-08T03:48:21.234Z,1018.37
2016-06-08T03:49:21.252Z,1018.36
2016-06-08T03:50:21.286Z,1018.38
2016-06-08T03:51:21.320Z,1018.36
2016-06-08T03:52:21.338Z,1018.4
2016-06-08T03:53:21.372Z,1018.42
2016-06-08T03:54:21.391Z,1018.44
2016-06-08T03:55:21.424Z,1018.43
2016-06-08T03:56:21.443Z,1018.39
2016-06-08T03:57:21.851Z,1018.39
2016-06-08T03:58:21.496Z,1018.43
2016-06-08T03:59:21.530Z,1018.33
2016-06-08T04:00:21.548Z,1018.32
2016-06-08T04:01:21.581Z,1018.35
2016-06-08T04:02:21.600Z,1018.33
2016-06-08T04:03:21.634Z,1018.35
2016-06-08T04:04:21.651Z,1018.32
2016-06-08T04:05:21.670Z,1018.35
2016-06-08T04:06:21.704Z,1018.32
2016-06-08T04:07:21.739Z,1018.36
2016-06-08T04:08:21.756Z,1018.35
2016-06-08T04:09:21.790Z,1018.39
2016-06-08T04:10:21.809Z,1018.34
2016-06-08T04:11:21.842Z,1018.35
2016-06-08T04:12:21.861Z,1018.34
2016-06-08T04:13:21.894Z,1018.34
2016-06-08T04:14:21.914Z,1018.35
2016-06-08T04:15:21.948Z,1018.39
2016-06-08T04:16:21.966Z,1018.37
2016-06-08T04:17:21.999Z,1018.4
2016-06-08T04:18:22.018Z,1018.36
2016-06-08T04:19:22.052Z,1018.39
2016-06-08T04:20:22.069Z,1018.41
2016-06-08T04:21:22.104Z,1018.39
2016-06-08T04:22:22.122Z,1018.39
2016-06-08T04:23:22.157Z,1018.38
2016-06-08T04:24:22.174Z,1018.39
2016-06-08T04:25:22.208Z,1018.37
2016-06-08T04:26:22.227Z,1018.37
2016-06-08T04:27:22.260Z,1018.39
2016-06-08T04:28:22.279Z,1018.4
2016-06-08T04:29:22.312Z,1018.39
2016-06-08T04:30:22.332Z,1018.39
2016-06-08T04:31:22.366Z,1018.42
2016-06-08T04:32:22.384Z,1018.33
2016-06-08T04:33:22.418Z,1018.38
2016-06-08T04:34:22.436Z,1018.38
2016-06-08T04:35:22.470Z,1018.34
2016-06-08T04:36:22.487Z,1018.35
2016-06-08T04:37:22.522Z,1018.35
2016-06-08T04:38:22.540Z,1018.32
2016-06-08T04:39:22.575Z,1018.37
2016-06-08T04:40:22.592Z,1018.39
2016-06-08T04:41:22.626Z,1018.34
2016-06-08T04:42:22.645Z,1018.34
2016-06-08T04:43:22.678Z,1018.39
2016-06-08T04:44:22.697Z,1018.37
2016-06-08T04:45:22.730Z,1018.35
2016-06-08T04:46:22.750Z,1018.33
2016-06-08T04:47:22.784Z,1018.37
2016-06-08T04:48:22.802Z,1018.38
2016-06-08T04:49:22.835Z,1018.38
2016-06-08T04:50:22.854Z,1018.38
2016-06-08T04:51:22.888Z,1018.35
2016-06-08T04:52:22.921Z,1018.32
2016-06-08T04:53:22.941Z,1018.38
2016-06-08T04:54:22.958Z,1018.38
2016-06-08T04:55:22.993Z,1018.37
2016-06-08T04:56:23.026Z,1018.36
2016-06-08T04:57:23.263Z,1018.38
2016-06-08T04:58:23.094Z,1018.38
2016-06-08T04:59:23.096Z,1018.37
2016-06-08T05:00:23.115Z,1018.38
2016-06-08T05:01:23.148Z,1018.35
2016-06-08T05:02:23.182Z,1018.37
2016-06-08T05:03:23.202Z,1018.35
2016-06-08T05:04:23.235Z,1018.36
2016-06-08T05:05:23.254Z,1018.36
2016-06-08T05:06:23.290Z,1018.41
2016-06-08T05:07:23.319Z,1018.38
2016-06-08T05:08:23.364Z,1018.35
2016-06-08T05:09:23.392Z,1018.35
2016-06-08T05:10:23.437Z,1018.35
2016-06-08T05:11:23.463Z,1018.34
2016-06-08T05:12:23.501Z,1018.37
2016-06-08T05:13:23.991Z,1018.34
2016-06-08T05:14:23.561Z,1018.32
2016-06-08T05:15:23.582Z,1018.33
2016-06-08T05:16:23.620Z,1018.33
2016-06-08T05:17:23.639Z,1018.32
2016-06-08T05:18:23.674Z,1018.34
2016-06-08T05:19:23.694Z,1018.33
2016-06-08T05:20:23.729Z,1018.32
2016-06-08T05:21:23.749Z,1018.36
2016-06-08T05:22:23.782Z,1018.3
2016-06-08T05:23:23.802Z,1018.3
2016-06-08T05:24:23.836Z,1018.33
2016-06-08T05:25:23.855Z,1018.31
2016-06-08T05:26:23.889Z,1018.33
2016-06-08T05:27:23.939Z,1018.32
2016-06-08T05:28:23.942Z,1018.3
2016-06-08T05:29:23.960Z,1018.33
2016-06-08T05:30:23.995Z,1018.32
2016-06-08T05:31:24.029Z,1018.35
2016-06-08T05:32:24.048Z,1018.33
2016-06-08T05:33:24.082Z,1018.36
2016-06-08T05:34:24.099Z,1018.38
2016-06-08T05:35:24.134Z,1018.35
2016-06-08T05:36:24.151Z,1018.39
2016-06-08T05:37:24.187Z,1018.37
2016-06-08T05:38:24.204Z,1018.39
2016-06-08T05:39:24.237Z,1018.37
2016-06-08T05:40:24.257Z,1018.37
2016-06-08T05:41:24.290Z,1018.36
2016-06-08T05:42:24.762Z,1018.39
2016-06-08T05:43:24.889Z,1018.39
2016-06-08T05:44:24.361Z,1018.37
2016-06-08T05:45:24.395Z,1018.4
2016-06-08T05:46:24.414Z,1018.43
2016-06-08T05:47:24.447Z,1018.38
2016-06-08T05:48:24.466Z,1018.36
2016-06-08T05:49:24.500Z,1018.41
2016-06-08T05:50:24.517Z,1018.4
2016-06-08T05:51:24.552Z,1018.41
2016-06-08T05:52:24.570Z,1018.4
2016-06-08T05:53:24.604Z,1018.44
2016-06-08T05:54:24.638Z,1018.42
2016-06-08T05:55:24.655Z,1018.43
2016-06-08T05:56:24.691Z,1018.4
2016-06-08T05:57:24.708Z,1018.42
2016-06-08T05:58:24.743Z,1018.46
2016-06-08T05:59:24.760Z,1018.45
2016-06-08T06:00:24.794Z,1018.45
2016-06-08T06:01:24.813Z,1018.46
2016-06-08T06:02:24.846Z,1018.43
2016-06-08T06:03:24.865Z,1018.47
2016-06-08T06:04:24.898Z,1018.46
2016-06-08T06:05:24.918Z,1018.47
2016-06-08T06:06:24.952Z,1018.51
2016-06-08T06:07:24.985Z,1018.48
2016-06-08T06:08:25.003Z,1018.48
2016-06-08T06:09:25.037Z,1018.52
2016-06-08T06:10:25.056Z,1018.49
2016-06-08T06:11:25.089Z,1018.53
2016-06-08T06:12:25.108Z,1018.54
2016-06-08T06:13:25.142Z,1018.52
2016-06-08T06:14:25.161Z,1018.52
2016-06-08T06:15:25.195Z,1018.52
2016-06-08T06:16:25.212Z,1018.53
2016-06-08T06:17:25.247Z,1018.52
2016-06-08T06:18:25.280Z,1018.52
2016-06-08T06:19:25.299Z,1018.5
2016-06-08T06:20:25.333Z,1018.52
2016-06-08T06:21:25.350Z,1018.51
2016-06-08T06:22:25.385Z,1018.5
2016-06-08T06:23:25.403Z,1018.52
2016-06-08T06:24:25.438Z,1018.54
2016-06-08T06:25:25.455Z,1018.52
2016-06-08T06:26:25.489Z,1018.53
2016-06-08T06:27:25.524Z,1018.53
2016-06-08T06:28:25.541Z,1018.51
2016-06-08T06:29:25.560Z,1018.53
2016-06-08T06:30:25.593Z,1018.52
2016-06-08T06:31:25.627Z,1018.53
2016-06-08T06:32:25.647Z,1018.53
2016-06-08T06:33:25.680Z,1018.54
2016-06-08T06:34:25.698Z,1018.53
2016-06-08T06:35:25.733Z,1018.52
2016-06-08T06:36:25.766Z,1018.53
2016-06-08T06:37:25.785Z,1018.51
2016-06-08T06:38:25.803Z,1018.54
2016-06-08T06:39:25.837Z,1018.54
2016-06-08T06:40:25.871Z,1018.53
2016-06-08T06:41:25.889Z,1018.57
2016-06-08T06:42:25.923Z,1018.51
2016-06-08T06:43:25.942Z,1018.52
2016-06-08T06:44:25.976Z,1018.54
2016-06-08T06:45:26.009Z,1018.55
2016-06-08T06:46:26.028Z,1018.53
2016-06-08T06:47:26.062Z,1018.51
2016-06-08T06:48:26.095Z,1018.52
2016-06-08T06:49:26.114Z,1018.55
2016-06-08T06:50:26.132Z,1018.55
2016-06-08T06:51:26.166Z,1018.55
2016-06-08T06:52:26.200Z,1018.54
2016-06-08T06:53:26.219Z,1018.55
2016-06-08T06:54:26.253Z,1018.56
2016-06-08T06:55:26.286Z,1018.56
2016-06-08T06:56:26.305Z,1018.56
2016-06-08T06:57:26.338Z,1018.58
2016-06-08T06:58:26.357Z,1018.58
2016-06-08T06:59:26.391Z,1018.56
2016-06-08T07:00:26.424Z,1018.6
2016-06-08T07:01:26.443Z,1018.58
2016-06-08T07:02:26.477Z,1018.56
2016-06-08T07:03:26.496Z,1018.55
2016-06-08T07:04:26.530Z,1018.54
2016-06-08T07:05:26.562Z,1018.56
2016-06-08T07:06:26.582Z,1018.53
2016-06-08T07:07:26.616Z,1018.57
2016-06-08T07:08:26.634Z,1018.56
2016-06-08T07:09:26.668Z,1018.55
2016-06-08T07:10:26.701Z,1018.55
2016-06-08T07:11:26.720Z,1018.57
2016-06-08T07:12:26.754Z,1018.58
2016-06-08T07:13:26.787Z,1018.59
2016-06-08T07:14:26.806Z,1018.62
2016-06-08T07:15:26.839Z,1018.59
2016-06-08T07:16:26.873Z,1018.61
2016-06-08T07:17:26.893Z,1018.6
2016-06-08T07:18:26.926Z,1018.61
2016-06-08T07:19:26.947Z,1018.63
2016-06-08T07:20:26.982Z,1018.62
2016-06-08T07:21:27.003Z,1018.61
2016-06-08T07:22:27.033Z,1018.65
2016-06-08T07:23:27.058Z,1018.65
2016-06-08T07:24:27.087Z,1018.66
2016-06-08T07:25:27.124Z,1018.67
2016-06-08T07:26:27.144Z,1018.63
2016-06-08T07:27:27.178Z,1018.64
2016-06-08T07:28:27.212Z,1018.65
2016-06-08T07:29:27.245Z,1018.65
2016-06-08T07:30:27.264Z,1018.64
2016-06-08T07:31:27.297Z,1018.66
2016-06-08T07:32:27.316Z,1018.68
2016-06-08T07:33:27.350Z,1018.66
2016-06-08T07:34:27.384Z,1018.64
2016-06-08T07:35:27.408Z,1018.66
2016-06-08T07:36:27.442Z,1018.69
2016-06-08T07:37:27.461Z,1018.67
2016-06-08T07:38:27.495Z,1018.68
2016-06-08T07:39:27.528Z,1018.68
2016-06-08T07:40:27.547Z,1018.74
2016-06-08T07:41:27.586Z,1018.7
2016-06-08T07:42:27.619Z,1018.69
2016-06-08T07:43:27.638Z,1018.68
2016-06-08T07:44:27.672Z,1018.71
2016-06-08T07:45:27.690Z,1018.68
2016-06-08T07:46:27.724Z,1018.67
2016-06-08T07:47:27.757Z,1018.68
2016-06-08T07:48:27.776Z,1018.69
2016-06-08T07:49:27.810Z,1018.72
2016-06-08T07:50:27.844Z,1018.71
2016-06-08T07:51:27.873Z,1018.71
2016-06-08T07:52:27.891Z,1018.71
2016-06-08T07:53:27.926Z,1018.75
2016-06-08T07:54:27.959Z,1018.74
2016-06-08T07:55:27.977Z,1018.72
2016-06-08T07:56:28.014Z,1018.73
2016-06-08T07:57:28.031Z,1018.75
2016-06-08T07:58:28.425Z,1018.73
2016-06-08T07:59:28.100Z,1018.72
2016-06-08T08:00:28.117Z,1018.77
2016-06-08T08:01:28.198Z,1018.76
2016-06-08T08:02:28.186Z,1018.75
2016-06-08T08:03:28.204Z,1018.74
2016-06-08T08:04:28.238Z,1018.8
2016-06-08T08:05:28.272Z,1018.74
2016-06-08T08:06:28.291Z,1018.77
2016-06-08T08:07:28.325Z,1018.78
2016-06-08T08:08:28.359Z,1018.76
2016-06-08T08:09:28.377Z,1018.76
2016-06-08T08:10:28.411Z,1018.79
2016-06-08T08:11:28.447Z,1018.79
2016-06-08T08:12:28.466Z,1018.79
2016-06-08T08:13:29.422Z,1018.79
2016-06-08T08:14:28.525Z,1018.8
2016-06-08T08:15:28.560Z,1018.78
2016-06-08T08:16:28.577Z,1018.82
2016-06-08T08:17:28.612Z,1018.8
2016-06-08T08:18:28.646Z,1018.79
2016-06-08T08:19:28.680Z,1018.87
2016-06-08T08:20:28.698Z,1018.81
2016-06-08T08:21:28.732Z,1018.81
2016-06-08T08:22:28.765Z,1018.84
2016-06-08T08:23:28.785Z,1018.83
2016-06-08T08:24:28.819Z,1018.82
2016-06-08T08:25:28.851Z,1018.87
2016-06-08T08:26:28.871Z,1018.8
2016-06-08T08:27:28.904Z,1018.8
2016-06-08T08:28:29.423Z,1018.81
2016-06-08T08:29:28.957Z,1018.81
2016-06-08T08:30:28.990Z,1018.84
2016-06-08T08:31:29.025Z,1018.84
2016-06-08T08:32:29.042Z,1018.83
2016-06-08T08:33:29.076Z,1018.84
2016-06-08T08:34:29.111Z,1018.82
2016-06-08T08:35:29.160Z,1018.83
2016-06-08T08:36:29.163Z,1018.83
2016-06-08T08:37:29.197Z,1018.87
2016-06-08T08:38:29.231Z,1018.85
2016-06-08T08:39:29.250Z,1018.81
2016-06-08T08:40:29.283Z,1018.84
2016-06-08T08:41:29.302Z,1018.83
2016-06-08T08:42:29.336Z,1018.85
2016-06-08T08:43:29.526Z,1018.82
2016-06-08T08:44:29.388Z,1018.82
2016-06-08T08:45:29.422Z,1018.86
2016-06-08T08:46:29.455Z,1018.84
2016-06-08T08:47:29.474Z,1018.83
2016-06-08T08:48:29.507Z,1018.8
2016-06-08T08:49:29.541Z,1018.85
2016-06-08T08:50:29.576Z,1018.81
2016-06-08T08:51:29.593Z,1018.82
2016-06-08T08:52:29.627Z,1018.83
2016-06-08T08:53:29.662Z,1018.85
2016-06-08T08:54:29.679Z,1018.79
2016-06-08T08:55:29.714Z,1018.79
2016-06-08T08:56:29.748Z,1018.78
2016-06-08T08:57:29.766Z,1018.78
2016-06-08T08:58:29.801Z,1018.77
2016-06-08T08:59:29.835Z,1018.8
2016-06-08T09:00:29.867Z,1018.77
2016-06-08T09:01:29.887Z,1018.76
2016-06-08T09:02:29.921Z,1018.74
2016-06-08T09:03:29.954Z,1018.78
2016-06-08T09:04:29.973Z,1018.72
2016-06-08T09:05:30.006Z,1018.77
2016-06-08T09:06:30.040Z,1018.76
2016-06-08T09:07:30.075Z,1018.77
2016-06-08T09:08:30.092Z,1018.71
2016-06-08T09:09:30.127Z,1018.72
2016-06-08T09:10:30.161Z,1018.68
2016-06-08T09:11:30.178Z,1018.71
2016-06-08T09:12:30.213Z,1018.71
2016-06-08T09:13:30.247Z,1018.69
2016-06-08T09:14:30.266Z,1018.69
2016-06-08T09:15:30.299Z,1018.65
2016-06-08T09:16:30.333Z,1018.67
2016-06-08T09:17:30.367Z,1018.7
2016-06-08T09:18:30.385Z,1018.71
2016-06-08T09:19:30.419Z,1018.71
2016-06-08T09:20:30.453Z,1018.69
2016-06-08T09:21:30.488Z,1018.73
2016-06-08T09:22:30.505Z,1018.67
2016-06-08T09:23:30.540Z,1018.71
2016-06-08T09:24:30.557Z,1018.7
2016-06-08T09:25:30.591Z,1018.74
2016-06-08T09:26:30.626Z,1018.69
2016-06-08T09:27:30.644Z,1018.67
2016-06-08T09:28:30.693Z,1018.71
2016-06-08T09:29:30.726Z,1018.7
2016-06-08T09:30:30.746Z,1018.68
2016-06-08T09:31:30.779Z,1018.68
2016-06-08T09:32:30.798Z,1018.69
2016-06-08T09:33:30.831Z,1018.65
2016-06-08T09:34:30.865Z,1018.67
2016-06-08T09:35:30.884Z,1018.7
2016-06-08T09:36:30.917Z,1018.66
2016-06-08T09:37:30.952Z,1018.66
2016-06-08T09:38:30.986Z,1018.63
2016-06-08T09:39:31.004Z,1018.63
2016-06-08T09:40:31.039Z,1018.62
2016-06-08T09:41:31.072Z,1018.63
2016-06-08T09:42:31.091Z,1018.66
2016-06-08T09:43:31.125Z,1018.61
2016-06-08T09:44:31.159Z,1018.66
2016-06-08T09:45:31.192Z,1018.61
2016-06-08T09:46:31.211Z,1018.64
2016-06-08T09:47:31.244Z,1018.67
2016-06-08T09:48:31.278Z,1018.69
2016-06-08T09:49:31.313Z,1018.67
2016-06-08T09:50:31.330Z,1018.64
2016-06-08T09:51:31.365Z,1018.64
2016-06-08T09:52:31.398Z,1018.62
2016-06-08T09:53:31.433Z,1018.63
2016-06-08T09:54:31.451Z,1018.65
2016-06-08T09:55:31.485Z,1018.64
2016-06-08T09:56:31.518Z,1018.65
2016-06-08T09:57:31.537Z,1018.66
2016-06-08T09:58:31.571Z,1018.67
2016-06-08T09:59:31.698Z,1018.66
2016-06-08T10:00:31.639Z,1018.69
2016-06-08T10:01:31.673Z,1018.68
2016-06-08T10:02:31.691Z,1018.67
2016-06-08T10:03:31.725Z,1018.7
2016-06-08T10:04:31.759Z,1018.65
2016-06-08T10:05:31.778Z,1018.64
2016-06-08T10:06:31.812Z,1018.65
2016-06-08T10:07:31.846Z,1018.64
2016-06-08T10:08:31.878Z,1018.64
2016-06-08T10:09:31.898Z,1018.65
2016-06-08T10:10:31.931Z,1018.6
2016-06-08T10:11:31.965Z,1018.64
2016-06-08T10:12:32.000Z,1018.62
2016-06-08T10:13:32.017Z,1018.63
2016-06-08T10:14:32.052Z,1018.6
2016-06-08T10:15:32.086Z,1018.64
2016-06-08T10:16:32.120Z,1018.64
2016-06-08T10:17:32.138Z,1018.63
2016-06-08T10:18:32.171Z,1018.62
2016-06-08T10:19:32.205Z,1018.62
2016-06-08T10:20:32.224Z,1018.62
2016-06-08T10:21:32.258Z,1018.6
2016-06-08T10:22:32.291Z,1018.64
2016-06-08T10:23:32.326Z,1018.61
2016-06-08T10:24:32.343Z,1018.59
2016-06-08T10:25:32.377Z,1018.65
2016-06-08T10:26:32.412Z,1018.57
2016-06-08T10:27:32.446Z,1018.56
2016-06-08T10:28:32.465Z,1018.56
2016-06-08T10:29:32.498Z,1018.56
2016-06-08T10:30:32.532Z,1018.49
2016-06-08T10:31:32.565Z,1018.52
2016-06-08T10:32:32.585Z,1018.52
2016-06-08T10:33:32.618Z,1018.52
2016-06-08T10:34:32.652Z,1018.52
2016-06-08T10:35:32.670Z,1018.48
2016-06-08T10:36:32.704Z,1018.47
2016-06-08T10:37:32.739Z,1018.47
2016-06-08T10:38:32.773Z,1018.45
2016-06-08T10:39:32.806Z,1018.5
2016-06-08T10:40:32.825Z,1018.45
2016-06-08T10:41:32.859Z,1018.48
2016-06-08T10:42:32.892Z,1018.44
2016-06-08T10:43:32.911Z,1018.45
2016-06-08T10:44:33.226Z,1018.46
2016-06-08T10:45:32.978Z,1018.42
2016-06-08T10:46:33.013Z,1018.44
2016-06-08T10:47:33.030Z,1018.41
2016-06-08T10:48:33.064Z,1018.44
2016-06-08T10:49:33.114Z,1018.45
2016-06-08T10:50:33.149Z,1018.39
2016-06-08T10:51:33.166Z,1018.42
2016-06-08T10:52:33.185Z,1018.43
2016-06-08T10:53:33.219Z,1018.43
2016-06-08T10:54:33.238Z,1018.46
2016-06-08T10:55:33.271Z,1018.41
2016-06-08T10:56:33.304Z,1018.42
2016-06-08T10:57:33.338Z,1018.42
2016-06-08T10:58:33.388Z,1018.4
2016-06-08T10:59:34.235Z,1018.37
2016-06-08T11:00:33.426Z,1018.33
2016-06-08T11:01:33.460Z,1018.35
2016-06-08T11:02:33.477Z,1018.36
2016-06-08T11:03:33.512Z,1018.36
2016-06-08T11:04:33.545Z,1018.31
2016-06-08T11:05:33.579Z,1018.35
2016-06-08T11:06:33.598Z,1018.37
2016-06-08T11:07:33.632Z,1018.31
2016-06-08T11:08:33.665Z,1018.33
2016-06-08T11:09:33.684Z,1018.36
2016-06-08T11:10:33.717Z,1018.31
2016-06-08T11:11:33.751Z,1018.31
2016-06-08T11:12:33.786Z,1018.3
2016-06-08T11:13:33.803Z,1018.29
2016-06-08T11:14:33.838Z,1018.29
2016-06-08T11:15:33.872Z,1018.2
2016-06-08T11:16:33.889Z,1018.24
2016-06-08T11:17:33.924Z,1018.19
2016-06-08T11:18:33.958Z,1018.17
2016-06-08T11:19:33.991Z,1018.21
2016-06-08T11:20:34.011Z,1018.22
2016-06-08T11:21:34.061Z,1018.18
2016-06-08T11:22:34.077Z,1018.17
2016-06-08T11:23:34.097Z,1018.18
2016-06-08T11:24:34.130Z,1018.2
2016-06-08T11:25:34.164Z,1018.14
2016-06-08T11:26:34.183Z,1018.16
2016-06-08T11:27:34.216Z,1018.12
2016-06-08T11:28:34.251Z,1018.07
2016-06-08T11:29:34.879Z,1018.07
2016-06-08T11:30:34.302Z,1018.08
2016-06-08T11:31:34.337Z,1018.07
2016-06-08T11:32:34.371Z,1018.07
2016-06-08T11:33:34.389Z,1018.14
2016-06-08T11:34:34.423Z,1018.06
2016-06-08T11:35:34.457Z,1018.04
2016-06-08T11:36:34.490Z,1018.06
2016-06-08T11:37:34.509Z,1018.04
2016-06-08T11:38:34.542Z,1018
2016-06-08T11:39:34.576Z,1018.01
2016-06-08T11:40:34.612Z,1017.97
2016-06-08T11:41:34.629Z,1018.04
2016-06-08T11:42:34.664Z,1018.02
2016-06-08T11:43:34.697Z,1017.97
2016-06-08T11:44:34.715Z,1017.94
2016-06-08T11:45:34.750Z,1017.96
2016-06-08T11:46:34.784Z,1017.93
2016-06-08T11:47:34.817Z,1017.96
2016-06-08T11:48:34.836Z,1017.96
2016-06-08T11:49:34.869Z,1017.95
2016-06-08T11:50:34.903Z,1017.93
2016-06-08T11:51:34.938Z,1017.91
2016-06-08T11:52:34.955Z,1017.93
2016-06-08T11:53:34.989Z,1017.95
2016-06-08T11:54:35.008Z,1017.99
2016-06-08T11:55:35.057Z,1017.95
2016-06-08T11:56:35.077Z,1017.91
2016-06-08T11:57:35.469Z,1017.93
2016-06-08T11:58:35.659Z,1017.93
2016-06-08T11:59:35.177Z,1017.9
2016-06-08T12:00:35.196Z,1017.9
2016-06-08T12:01:35.229Z,1017.87
2016-06-08T12:02:35.249Z,1017.91
2016-06-08T12:03:35.282Z,1017.85
2016-06-08T12:04:35.315Z,1017.86
2016-06-08T12:05:35.335Z,1017.85
2016-06-08T12:06:35.368Z,1017.86
2016-06-08T12:07:35.418Z,1017.88